createdAt,value
2022-10-22T00:09:52.989Z,54.01
2022-10-22T00:14:58.208Z,53.98
2022-10-22T00:20:01.645Z,53.76
2022-10-22T00:25:05.598Z,54.43
2022-10-22T00:30:12.326Z,55.05
2022-10-22T00:35:15.854Z,55.04
2022-10-22T00:40:19.385Z,54.78
2022-10-22T00:45:26.238Z,54.48
2022-10-22T00:50:32.747Z,54.13
2022-10-22T00:55:36.461Z,54.04
2022-10-22T01:00:41.385Z,54.57
2022-10-22T01:06:05.472Z,54.31
2022-10-22T01:11:14.442Z,54.76
2022-10-22T01:16:23.752Z,55.00
2022-10-22T01:21:32.300Z,55.57
2022-10-22T01:26:45.243Z,55.37
2022-10-22T01:31:54.415Z,55.67
2022-10-22T01:36:59.054Z,55.47
2022-10-22T01:42:02.456Z,56.01
2022-10-22T01:47:17.003Z,55.92
2022-10-22T01:52:26.985Z,55.23
2022-10-22T01:57:35.730Z,54.68
2022-10-22T02:02:44.447Z,54.91
2022-10-22T02:07:50.790Z,54.59
2022-10-22T02:12:55.897Z,54.35
2022-10-22T02:18:01.162Z,54.31
2022-10-22T02:23:04.801Z,54.64
2022-10-22T02:28:14.623Z,54.76
2022-10-22T02:33:21.927Z,54.77
2022-10-22T02:38:26.387Z,55.28
2022-10-22T02:43:30.113Z,55.47
2022-10-22T02:48:34.887Z,55.05
2022-10-22T02:53:38.221Z,54.77
2022-10-22T02:58:41.562Z,54.51
2022-10-22T03:03:46.267Z,56.39
2022-10-22T03:08:49.910Z,55.73
2022-10-22T03:13:53.353Z,55.47
2022-10-22T03:18:58.086Z,55.27
2022-10-22T03:24:03.242Z,54.54
2022-10-22T03:29:06.894Z,54.60
2022-10-22T03:34:13.393Z,54.69
2022-10-22T03:39:17.881Z,54.67
2022-10-22T03:44:21.689Z,54.69
2022-10-22T03:49:26.499Z,54.77
2022-10-22T03:54:29.950Z,54.52
2022-10-22T03:59:36.086Z,54.68
2022-10-22T04:04:40.907Z,54.79
2022-10-22T04:09:44.247Z,55.12
2022-10-22T04:14:47.601Z,54.29
2022-10-22T04:19:52.323Z,55.15
2022-10-22T04:24:55.688Z,55.36
2022-10-22T04:29:59.077Z,54.92
2022-10-22T04:35:04.090Z,54.55
2022-10-22T04:40:08.946Z,54.66
2022-10-22T04:45:12.342Z,55.08
2022-10-22T04:50:17.297Z,55.74
2022-10-22T04:55:20.792Z,56.01
2022-10-22T05:00:24.265Z,55.91
2022-10-22T05:05:29.028Z,55.47
2022-10-22T05:10:32.481Z,54.79
2022-10-22T05:15:35.963Z,54.54
2022-10-22T05:20:41.773Z,54.59
2022-10-22T05:25:45.141Z,54.83
2022-10-22T05:30:54.341Z,54.94
2022-10-22T05:35:59.432Z,54.81
2022-10-22T05:41:04.002Z,54.33
2022-10-22T05:46:08.754Z,55.09
2022-10-22T05:51:14.688Z,54.97
2022-10-22T05:56:18.083Z,54.91
2022-10-22T06:01:23.714Z,54.96
2022-10-22T06:06:30.493Z,54.36
2022-10-22T06:11:35.294Z,54.64
2022-10-22T06:16:39.041Z,54.36
2022-10-22T06:21:44.182Z,54.55
2022-10-22T06:26:50.641Z,55.21
2022-10-22T06:31:54.078Z,55.42
2022-10-22T06:36:58.928Z,55.59
2022-10-22T06:42:02.332Z,55.38
2022-10-22T06:47:10.786Z,55.43
2022-10-22T06:52:15.512Z,55.54
2022-10-22T06:57:19.003Z,55.55
2022-10-22T07:02:22.670Z,55.40
2022-10-22T07:07:27.618Z,55.65
2022-10-22T07:12:31.071Z,54.99
2022-10-22T07:17:34.619Z,54.84
2022-10-22T07:22:39.865Z,54.66
2022-10-22T07:27:43.676Z,55.47
2022-10-22T07:32:47.243Z,54.44
2022-10-22T07:37:52.358Z,54.81
2022-10-22T07:42:55.783Z,54.44
2022-10-22T07:48:00.525Z,54.13
2022-10-22T07:53:05.382Z,54.02
2022-10-22T07:58:08.930Z,54.66
2022-10-22T08:03:13.189Z,54.56
2022-10-22T08:08:18.167Z,55.02
2022-10-22T08:13:22.473Z,54.46
2022-10-22T08:18:26.139Z,54.43
2022-10-22T08:23:30.989Z,53.83
2022-10-22T08:28:37.013Z,53.32
2022-10-22T08:33:40.905Z,53.00
2022-10-22T08:38:45.594Z,52.07
2022-10-22T08:44:12.156Z,52.30
2022-10-22T08:49:20.537Z,52.42
2022-10-22T08:54:31.817Z,52.18
2022-10-22T08:59:39.690Z,52.02
2022-10-22T09:04:47.858Z,51.74
2022-10-22T09:09:54.257Z,51.39
2022-10-22T09:14:57.637Z,50.56
2022-10-22T09:20:05.620Z,50.26
2022-10-22T09:25:20.872Z,50.08
2022-10-22T09:30:26.090Z,49.74
2022-10-22T09:35:29.853Z,48.97
2022-10-22T09:40:43.614Z,48.47
2022-10-22T09:45:47.521Z,47.67
2022-10-22T09:50:56.259Z,47.47
2022-10-22T09:56:02.166Z,47.31
2022-10-22T10:01:05.718Z,46.54
2022-10-22T10:06:09.410Z,46.73
2022-10-22T10:11:20.474Z,46.30
2022-10-22T10:16:34.015Z,46.33
2022-10-22T10:21:41.633Z,46.46
2022-10-22T10:26:50.866Z,46.15
2022-10-22T10:32:07.803Z,46.30
2022-10-22T10:37:19.123Z,45.37
2022-10-22T10:42:28.242Z,45.68
2022-10-22T10:48:07.278Z,44.57
2022-10-22T10:53:16.065Z,45.01
2022-10-22T10:58:27.042Z,45.10
2022-10-22T11:04:02.438Z,45.02
2022-10-22T11:09:08.751Z,45.27
2022-10-22T11:14:16.323Z,44.41
2022-10-22T11:19:27.816Z,44.89
2022-10-22T11:24:47.566Z,45.00
2022-10-22T11:29:55.891Z,45.14
2022-10-22T11:35:00.857Z,45.70
2022-10-22T11:40:06.969Z,44.70
2022-10-22T11:50:50.765Z,43.44
2022-10-22T11:55:55.573Z,43.10
2022-10-22T12:01:19.683Z,43.47
2022-10-22T12:06:25.216Z,43.80
2022-10-22T12:11:30.059Z,43.88
2022-10-22T12:16:55.286Z,43.82
2022-10-22T12:22:09.142Z,43.30
2022-10-22T12:27:23.304Z,42.04
2022-10-22T12:32:34.646Z,41.52
2022-10-22T12:37:39.873Z,41.19
2022-10-22T12:42:49.257Z,41.78
2022-10-22T12:47:54.053Z,41.33
2022-10-22T12:52:58.946Z,41.27
2022-10-22T12:58:06.605Z,40.99
2022-10-22T13:03:26.020Z,41.31
2022-10-22T13:08:30.932Z,40.39
2022-10-22T13:13:43.064Z,40.64
2022-10-22T13:18:48.981Z,40.75
2022-10-22T13:23:59.664Z,41.18
2022-10-22T13:29:04.786Z,40.68
2022-10-22T13:34:11.766Z,40.97
2022-10-22T13:39:19.710Z,41.25
2022-10-22T13:44:23.142Z,44.29
2022-10-22T13:49:26.516Z,42.70
2022-10-22T13:54:31.349Z,41.71
2022-10-22T13:59:34.788Z,41.85
2022-10-22T14:04:41.051Z,41.46
2022-10-22T14:09:45.757Z,40.75
2022-10-22T14:14:49.177Z,41.04
2022-10-22T14:19:52.570Z,41.30
2022-10-22T14:24:57.366Z,40.48
2022-10-22T14:30:00.760Z,40.11
2022-10-22T14:35:04.589Z,40.60
2022-10-22T14:40:10.678Z,40.51
2022-10-22T14:45:16.986Z,40.85
2022-10-22T14:50:20.438Z,41.43
2022-10-22T14:55:27.494Z,41.56
2022-10-22T15:00:30.901Z,41.72
2022-10-22T15:05:36.161Z,42.11
2022-10-22T15:10:41.416Z,42.13
2022-10-22T15:15:44.731Z,42.13
2022-10-22T15:20:55.912Z,41.55
2022-10-22T15:26:00.608Z,41.78
2022-10-22T15:31:04.150Z,42.35
2022-10-22T15:36:11.795Z,42.56
2022-10-22T15:41:16.471Z,42.52
2022-10-22T15:46:20.504Z,42.82
2022-10-22T15:51:23.859Z,43.14
2022-10-22T15:56:30.234Z,42.80
2022-10-22T16:01:34.595Z,43.41
2022-10-22T16:06:39.681Z,43.31
2022-10-22T16:11:44.722Z,42.99
2022-10-22T16:16:49.386Z,43.37
2022-10-22T16:21:54.541Z,44.59
2022-10-22T16:27:00.106Z,45.45
2022-10-22T16:32:03.461Z,44.30
2022-10-22T16:37:10.141Z,44.78
2022-10-22T16:42:15.187Z,45.01
2022-10-22T16:47:18.554Z,44.71
2022-10-22T16:52:21.927Z,44.73
2022-10-22T16:57:26.616Z,44.77
2022-10-22T17:02:29.960Z,45.62
2022-10-22T17:07:33.320Z,45.37
2022-10-22T17:12:38.179Z,45.03
2022-10-22T17:17:41.867Z,44.71
2022-10-22T17:22:45.278Z,45.26
2022-10-22T17:27:50.361Z,45.43
2022-10-22T17:32:53.713Z,45.18
2022-10-22T17:37:57.098Z,45.41
2022-10-22T17:43:01.867Z,45.39
2022-10-22T17:48:05.491Z,45.44
2022-10-22T17:53:08.957Z,45.26
2022-10-22T17:58:13.810Z,45.34
2022-10-22T18:03:17.246Z,45.43
2022-10-22T18:08:20.720Z,45.34
2022-10-22T18:13:25.505Z,45.42
2022-10-22T18:18:29.291Z,44.77
2022-10-22T18:23:33.231Z,44.71
2022-10-22T18:28:38.045Z,44.78
2022-10-22T18:33:41.731Z,44.92
2022-10-22T18:38:45.117Z,44.97
2022-10-22T18:43:52.200Z,45.04
2022-10-22T18:48:56.174Z,44.90
2022-10-22T18:54:05.730Z,44.81
2022-10-22T18:59:25.963Z,44.83
2022-10-22T19:04:33.187Z,44.70
2022-10-22T19:09:36.593Z,45.07
2022-10-22T19:14:41.625Z,45.23
2022-10-22T19:19:45.228Z,45.50
2022-10-22T19:24:50.109Z,45.57
2022-10-22T19:29:54.793Z,45.22
2022-10-22T19:34:58.165Z,45.34
2022-10-22T19:40:01.523Z,45.67
2022-10-22T19:45:08.111Z,45.41
2022-10-22T19:50:11.484Z,44.78
2022-10-22T19:55:15.309Z,45.29
2022-10-22T20:00:20.191Z,44.73
2022-10-22T20:10:32.228Z,44.74
2022-10-22T20:15:37.349Z,44.41
2022-10-22T20:20:40.886Z,44.46
2022-10-22T20:25:45.412Z,44.49
2022-10-22T20:30:50.158Z,44.83
2022-10-22T20:36:00.458Z,45.14
2022-10-22T20:41:05.316Z,45.01
2022-10-22T20:46:15.624Z,45.66
2022-10-22T20:51:19.057Z,46.35
2022-10-22T20:56:22.639Z,45.94
2022-10-22T21:01:28.447Z,46.09
2022-10-22T21:06:31.866Z,45.94
2022-10-22T21:11:35.738Z,46.38
2022-10-22T21:16:42.798Z,46.31
2022-10-22T21:21:46.365Z,46.90
2022-10-22T21:26:49.721Z,47.49
2022-10-22T21:31:54.828Z,47.72
2022-10-22T21:36:58.234Z,47.76
2022-10-22T21:42:01.607Z,48.09
2022-10-22T21:47:06.543Z,47.57
2022-10-22T21:52:09.905Z,48.05
2022-10-22T21:57:13.269Z,48.21
2022-10-22T22:02:18.121Z,48.36
2022-10-22T22:07:21.711Z,48.40
2022-10-22T22:12:25.110Z,49.06
2022-10-22T22:17:29.937Z,49.00
2022-10-22T22:22:33.334Z,49.20
2022-10-22T22:27:36.706Z,49.29
2022-10-22T22:32:42.352Z,48.79
2022-10-22T22:37:45.732Z,49.48
2022-10-22T22:42:49.666Z,48.76
2022-10-22T22:47:54.491Z,48.94
2022-10-22T22:52:58.054Z,49.47
2022-10-22T22:58:01.461Z,49.48
2022-10-22T23:03:06.319Z,49.19
2022-10-22T23:08:09.831Z,48.90
2022-10-22T23:13:13.208Z,49.38
2022-10-22T23:18:18.395Z,49.10
2022-10-22T23:23:21.758Z,49.26
2022-10-22T23:28:25.195Z,49.54
2022-10-22T23:33:29.965Z,49.48
2022-10-22T23:38:33.559Z,49.64
2022-10-22T23:43:37.783Z,49.29
2022-10-22T23:48:42.941Z,49.17
2022-10-22T23:53:47.435Z,49.63
2022-10-22T23:58:52.498Z,49.68
